sensor_id;sensor_type;location;lat;lon;timestamp;P1;durP1;ratioP1;P2;durP2;ratioP2
53273;SDS011;39163;52.696;6.758;2024-02-21T00:01:14;37.95;;;14.43;;
53273;SDS011;39163;52.696;6.758;2024-02-21T00:03:42;29.38;;;14.45;;
53273;SDS011;39163;52.696;6.758;2024-02-21T00:06:09;31.05;;;13.20;;
53273;SDS011;39163;52.696;6.758;2024-02-21T00:08:37;30.42;;;13.93;;
53273;SDS011;39163;52.696;6.758;2024-02-21T00:11:04;28.73;;;12.85;;
53273;SDS011;39163;52.696;6.758;2024-02-21T00:13:31;29.83;;;12.50;;
53273;SDS011;39163;52.696;6.758;2024-02-21T00:16:00;23.98;;;11.82;;
53273;SDS011;39163;52.696;6.758;2024-02-21T00:18:27;25.52;;;11.88;;
53273;SDS011;39163;52.696;6.758;2024-02-21T00:20:54;33.88;;;11.40;;
53273;SDS011;39163;52.696;6.758;2024-02-21T00:23:21;31.83;;;13.07;;
53273;SDS011;39163;52.696;6.758;2024-02-21T00:25:49;26.27;;;11.40;;
53273;SDS011;39163;52.696;6.758;2024-02-21T00:28:16;26.92;;;11.90;;
53273;SDS011;39163;52.696;6.758;2024-02-21T00:30:43;27.90;;;11.38;;
53273;SDS011;39163;52.696;6.758;2024-02-21T00:33:10;25.38;;;11.07;;
53273;SDS011;39163;52.696;6.758;2024-02-21T00:35:37;29.25;;;11.57;;
53273;SDS011;39163;52.696;6.758;2024-02-21T00:38:04;23.90;;;10.85;;
53273;SDS011;39163;52.696;6.758;2024-02-21T00:40:31;27.38;;;11.93;;
53273;SDS011;39163;52.696;6.758;2024-02-21T00:42:59;26.83;;;11.63;;
53273;SDS011;39163;52.696;6.758;2024-02-21T00:45:26;24.75;;;11.63;;
53273;SDS011;39163;52.696;6.758;2024-02-21T00:47:53;27.85;;;11.77;;
53273;SDS011;39163;52.696;6.758;2024-02-21T00:50:20;36.28;;;12.02;;
53273;SDS011;39163;52.696;6.758;2024-02-21T00:52:47;31.98;;;11.50;;
53273;SDS011;39163;52.696;6.758;2024-02-21T00:55:14;22.40;;;10.73;;
53273;SDS011;39163;52.696;6.758;2024-02-21T00:57:41;29.60;;;11.35;;
53273;SDS011;39163;52.696;6.758;2024-02-21T01:00:10;30.05;;;11.70;;
53273;SDS011;39163;52.696;6.758;2024-02-21T01:02:37;26.58;;;11.52;;
53273;SDS011;39163;52.696;6.758;2024-02-21T01:05:04;27.73;;;10.32;;
53273;SDS011;39163;52.696;6.758;2024-02-21T01:07:32;25.77;;;10.90;;
53273;SDS011;39163;52.696;6.758;2024-02-21T01:09:59;25.67;;;10.60;;
53273;SDS011;39163;52.696;6.758;2024-02-21T01:12:25;22.40;;;10.95;;
53273;SDS011;39163;52.696;6.758;2024-02-21T01:14:53;21.48;;;10.98;;
53273;SDS011;39163;52.696;6.758;2024-02-21T01:17:21;21.58;;;9.73;;
53273;SDS011;39163;52.696;6.758;2024-02-21T01:19:48;30.50;;;11.05;;
53273;SDS011;39163;52.696;6.758;2024-02-21T01:22:15;22.73;;;10.40;;
53273;SDS011;39163;52.696;6.758;2024-02-21T01:24:43;23.80;;;9.70;;
53273;SDS011;39163;52.696;6.758;2024-02-21T01:27:09;20.05;;;10.50;;
53273;SDS011;39163;52.696;6.758;2024-02-21T01:29:36;19.63;;;10.75;;
53273;SDS011;39163;52.696;6.758;2024-02-21T01:32:04;22.13;;;8.93;;
53273;SDS011;39163;52.696;6.758;2024-02-21T01:34:32;18.30;;;9.50;;
53273;SDS011;39163;52.696;6.758;2024-02-21T01:36:59;26.15;;;9.68;;
53273;SDS011;39163;52.696;6.758;2024-02-21T01:39:29;23.38;;;10.35;;
53273;SDS011;39163;52.696;6.758;2024-02-21T01:41:56;22.05;;;9.50;;
53273;SDS011;39163;52.696;6.758;2024-02-21T01:44:23;26.10;;;9.70;;
53273;SDS011;39163;52.696;6.758;2024-02-21T01:46:50;20.00;;;9.00;;
53273;SDS011;39163;52.696;6.758;2024-02-21T01:49:18;24.13;;;10.02;;
53273;SDS011;39163;52.696;6.758;2024-02-21T01:51:47;22.17;;;9.30;;
53273;SDS011;39163;52.696;6.758;2024-02-21T01:54:14;24.17;;;9.48;;
53273;SDS011;39163;52.696;6.758;2024-02-21T01:56:40;22.48;;;9.57;;
53273;SDS011;39163;52.696;6.758;2024-02-21T01:59:08;21.10;;;8.15;;
53273;SDS011;39163;52.696;6.758;2024-02-21T02:01:35;21.25;;;8.25;;
53273;SDS011;39163;52.696;6.758;2024-02-21T02:04:02;20.27;;;8.82;;
53273;SDS011;39163;52.696;6.758;2024-02-21T02:06:30;18.63;;;7.93;;
53273;SDS011;39163;52.696;6.758;2024-02-21T02:08:58;22.33;;;8.50;;
53273;SDS011;39163;52.696;6.758;2024-02-21T02:11:25;15.40;;;8.57;;
53273;SDS011;39163;52.696;6.758;2024-02-21T02:13:53;15.88;;;7.78;;
53273;SDS011;39163;52.696;6.758;2024-02-21T02:16:21;19.42;;;8.40;;
53273;SDS011;39163;52.696;6.758;2024-02-21T02:18:48;21.80;;;9.50;;
53273;SDS011;39163;52.696;6.758;2024-02-21T02:21:16;25.70;;;7.47;;
53273;SDS011;39163;52.696;6.758;2024-02-21T02:23:54;19.95;;;8.23;;
53273;SDS011;39163;52.696;6.758;2024-02-21T02:26:21;16.88;;;7.70;;
53273;SDS011;39163;52.696;6.758;2024-02-21T02:28:48;14.40;;;7.03;;
53273;SDS011;39163;52.696;6.758;2024-02-21T02:31:15;20.08;;;8.55;;
53273;SDS011;39163;52.696;6.758;2024-02-21T02:33:42;21.45;;;7.68;;
53273;SDS011;39163;52.696;6.758;2024-02-21T02:36:10;18.60;;;6.90;;
53273;SDS011;39163;52.696;6.758;2024-02-21T02:38:37;22.67;;;7.50;;
53273;SDS011;39163;52.696;6.758;2024-02-21T02:41:05;27.35;;;8.25;;
53273;SDS011;39163;52.696;6.758;2024-02-21T02:43:32;19.95;;;7.40;;
53273;SDS011;39163;52.696;6.758;2024-02-21T02:45:59;28.70;;;8.52;;
53273;SDS011;39163;52.696;6.758;2024-02-21T02:48:26;21.42;;;7.10;;
53273;SDS011;39163;52.696;6.758;2024-02-21T02:50:53;19.90;;;6.90;;
53273;SDS011;39163;52.696;6.758;2024-02-21T02:53:20;19.35;;;7.60;;
53273;SDS011;39163;52.696;6.758;2024-02-21T02:55:47;18.25;;;8.27;;
53273;SDS011;39163;52.696;6.758;2024-02-21T02:58:15;24.25;;;7.68;;
53273;SDS011;39163;52.696;6.758;2024-02-21T03:00:42;33.08;;;9.25;;
53273;SDS011;39163;52.696;6.758;2024-02-21T03:03:09;30.15;;;11.00;;
53273;SDS011;39163;52.696;6.758;2024-02-21T03:05:36;26.85;;;8.90;;
53273;SDS011;39163;52.696;6.758;2024-02-21T03:08:03;25.20;;;9.27;;
53273;SDS011;39163;52.696;6.758;2024-02-21T03:10:32;27.45;;;9.13;;
53273;SDS011;39163;52.696;6.758;2024-02-21T03:12:59;28.48;;;10.00;;
53273;SDS011;39163;52.696;6.758;2024-02-21T03:15:27;24.88;;;8.82;;
53273;SDS011;39163;52.696;6.758;2024-02-21T03:17:54;29.52;;;9.43;;
53273;SDS011;39163;52.696;6.758;2024-02-21T03:20:21;30.33;;;10.05;;
53273;SDS011;39163;52.696;6.758;2024-02-21T03:22:48;27.73;;;8.95;;
53273;SDS011;39163;52.696;6.758;2024-02-21T03:25:15;31.35;;;10.60;;
53273;SDS011;39163;52.696;6.758;2024-02-21T03:27:42;22.92;;;9.07;;
53273;SDS011;39163;52.696;6.758;2024-02-21T03:30:09;24.63;;;9.25;;
53273;SDS011;39163;52.696;6.758;2024-02-21T03:32:38;36.13;;;9.80;;
53273;SDS011;39163;52.696;6.758;2024-02-21T03:35:06;37.28;;;10.07;;
53273;SDS011;39163;52.696;6.758;2024-02-21T03:37:33;24.15;;;10.30;;
53273;SDS011;39163;52.696;6.758;2024-02-21T03:40:00;33.08;;;10.13;;
53273;SDS011;39163;52.696;6.758;2024-02-21T03:42:27;27.88;;;9.80;;
53273;SDS011;39163;52.696;6.758;2024-02-21T03:44:55;33.08;;;9.57;;
53273;SDS011;39163;52.696;6.758;2024-02-21T03:47:22;26.15;;;9.05;;
53273;SDS011;39163;52.696;6.758;2024-02-21T03:49:50;25.10;;;8.73;;
53273;SDS011;39163;52.696;6.758;2024-02-21T03:52:17;30.85;;;9.38;;
53273;SDS011;39163;52.696;6.758;2024-02-21T03:54:44;39.28;;;11.55;;
53273;SDS011;39163;52.696;6.758;2024-02-21T03:57:11;31.60;;;9.93;;
53273;SDS011;39163;52.696;6.758;2024-02-21T03:59:38;28.15;;;9.73;;
53273;SDS011;39163;52.696;6.758;2024-02-21T04:02:05;37.03;;;10.43;;
53273;SDS011;39163;52.696;6.758;2024-02-21T04:04:33;26.88;;;9.40;;
53273;SDS011;39163;52.696;6.758;2024-02-21T04:07:03;36.00;;;11.25;;
53273;SDS011;39163;52.696;6.758;2024-02-21T04:09:31;26.02;;;9.07;;
53273;SDS011;39163;52.696;6.758;2024-02-21T04:11:59;33.13;;;9.50;;
53273;SDS011;39163;52.696;6.758;2024-02-21T04:14:27;32.72;;;8.98;;
53273;SDS011;39163;52.696;6.758;2024-02-21T04:16:54;22.55;;;8.27;;
53273;SDS011;39163;52.696;6.758;2024-02-21T04:19:21;26.48;;;8.98;;
53273;SDS011;39163;52.696;6.758;2024-02-21T04:21:48;32.95;;;9.18;;
53273;SDS011;39163;52.696;6.758;2024-02-21T04:24:16;26.75;;;8.52;;
53273;SDS011;39163;52.696;6.758;2024-02-21T04:26:43;28.98;;;8.63;;
53273;SDS011;39163;52.696;6.758;2024-02-21T04:29:10;23.40;;;8.30;;
53273;SDS011;39163;52.696;6.758;2024-02-21T04:31:37;31.55;;;7.95;;
53273;SDS011;39163;52.696;6.758;2024-02-21T04:34:05;22.20;;;7.57;;
53273;SDS011;39163;52.696;6.758;2024-02-21T04:36:32;25.92;;;7.60;;
53273;SDS011;39163;52.696;6.758;2024-02-21T04:38:59;29.40;;;8.63;;
53273;SDS011;39163;52.696;6.758;2024-02-21T04:41:28;22.17;;;6.78;;
53273;SDS011;39163;52.696;6.758;2024-02-21T04:43:55;26.80;;;8.73;;
53273;SDS011;39163;52.696;6.758;2024-02-21T04:46:21;23.80;;;7.50;;
53273;SDS011;39163;52.696;6.758;2024-02-21T04:48:48;28.20;;;8.85;;
53273;SDS011;39163;52.696;6.758;2024-02-21T04:51:15;36.72;;;10.40;;
53273;SDS011;39163;52.696;6.758;2024-02-21T04:53:42;21.73;;;8.32;;
53273;SDS011;39163;52.696;6.758;2024-02-21T04:56:09;26.75;;;7.72;;
53273;SDS011;39163;52.696;6.758;2024-02-21T04:58:38;21.27;;;8.10;;
53273;SDS011;39163;52.696;6.758;2024-02-21T05:01:05;29.60;;;8.00;;
53273;SDS011;39163;52.696;6.758;2024-02-21T05:03:32;25.83;;;7.97;;
53273;SDS011;39163;52.696;6.758;2024-02-21T05:05:59;28.45;;;9.25;;
53273;SDS011;39163;52.696;6.758;2024-02-21T05:08:27;24.70;;;7.93;;
53273;SDS011;39163;52.696;6.758;2024-02-21T05:10:53;29.27;;;7.38;;
53273;SDS011;39163;52.696;6.758;2024-02-21T05:13:21;26.15;;;7.30;;
53273;SDS011;39163;52.696;6.758;2024-02-21T05:15:49;25.30;;;8.05;;
53273;SDS011;39163;52.696;6.758;2024-02-21T05:18:16;26.27;;;8.52;;
53273;SDS011;39163;52.696;6.758;2024-02-21T05:20:43;26.27;;;8.40;;
53273;SDS011;39163;52.696;6.758;2024-02-21T05:23:10;30.27;;;8.63;;
53273;SDS011;39163;52.696;6.758;2024-02-21T05:25:37;34.15;;;9.05;;
53273;SDS011;39163;52.696;6.758;2024-02-21T05:28:04;26.05;;;7.95;;
53273;SDS011;39163;52.696;6.758;2024-02-21T05:30:31;18.27;;;7.68;;
53273;SDS011;39163;52.696;6.758;2024-02-21T05:33:03;27.13;;;8.93;;
53273;SDS011;39163;52.696;6.758;2024-02-21T05:35:31;26.60;;;9.43;;
53273;SDS011;39163;52.696;6.758;2024-02-21T05:37:59;33.58;;;9.73;;
53273;SDS011;39163;52.696;6.758;2024-02-21T05:40:25;23.50;;;9.93;;
53273;SDS011;39163;52.696;6.758;2024-02-21T05:42:52;22.63;;;9.23;;
53273;SDS011;39163;52.696;6.758;2024-02-21T05:45:19;32.40;;;11.75;;
53273;SDS011;39163;52.696;6.758;2024-02-21T05:47:46;24.70;;;10.88;;
53273;SDS011;39163;52.696;6.758;2024-02-21T05:50:15;27.20;;;11.55;;
53273;SDS011;39163;52.696;6.758;2024-02-21T05:52:42;33.00;;;11.60;;
53273;SDS011;39163;52.696;6.758;2024-02-21T05:55:09;21.27;;;10.90;;
53273;SDS011;39163;52.696;6.758;2024-02-21T05:57:36;36.10;;;13.35;;
53273;SDS011;39163;52.696;6.758;2024-02-21T06:00:04;30.90;;;12.32;;
53273;SDS011;39163;52.696;6.758;2024-02-21T06:02:31;31.65;;;11.63;;
53273;SDS011;39163;52.696;6.758;2024-02-21T06:04:59;32.92;;;12.57;;
53273;SDS011;39163;52.696;6.758;2024-02-21T06:07:27;26.20;;;12.93;;
53273;SDS011;39163;52.696;6.758;2024-02-21T06:09:54;28.80;;;12.70;;
53273;SDS011;39163;52.696;6.758;2024-02-21T06:12:21;27.20;;;13.15;;
53273;SDS011;39163;52.696;6.758;2024-02-21T06:14:49;34.58;;;12.82;;
53273;SDS011;39163;52.696;6.758;2024-02-21T06:17:16;28.23;;;11.77;;
53273;SDS011;39163;52.696;6.758;2024-02-21T06:19:43;27.55;;;12.40;;
53273;SDS011;39163;52.696;6.758;2024-02-21T06:22:10;30.08;;;13.55;;
53273;SDS011;39163;52.696;6.758;2024-02-21T06:24:39;26.88;;;12.65;;
53273;SDS011;39163;52.696;6.758;2024-02-21T06:27:06;37.20;;;13.15;;
53273;SDS011;39163;52.696;6.758;2024-02-21T06:29:34;28.85;;;12.95;;
53273;SDS011;39163;52.696;6.758;2024-02-21T06:32:01;28.38;;;12.68;;
53273;SDS011;39163;52.696;6.758;2024-02-21T06:34:28;29.45;;;14.13;;
53273;SDS011;39163;52.696;6.758;2024-02-21T06:36:55;30.65;;;11.93;;
53273;SDS011;39163;52.696;6.758;2024-02-21T06:39:22;30.50;;;13.23;;
53273;SDS011;39163;52.696;6.758;2024-02-21T06:41:50;31.25;;;11.57;;
53273;SDS011;39163;52.696;6.758;2024-02-21T06:44:19;31.75;;;12.80;;
53273;SDS011;39163;52.696;6.758;2024-02-21T06:46:46;29.65;;;12.25;;
53273;SDS011;39163;52.696;6.758;2024-02-21T06:49:13;27.95;;;12.48;;
53273;SDS011;39163;52.696;6.758;2024-02-21T06:51:41;47.17;;;20.83;;
53273;SDS011;39163;52.696;6.758;2024-02-21T06:54:08;39.53;;;16.75;;
53273;SDS011;39163;52.696;6.758;2024-02-21T06:56:36;38.90;;;15.63;;
53273;SDS011;39163;52.696;6.758;2024-02-21T06:59:05;29.48;;;12.23;;
53273;SDS011;39163;52.696;6.758;2024-02-21T07:01:32;30.25;;;14.82;;
53273;SDS011;39163;52.696;6.758;2024-02-21T07:03:59;34.33;;;14.60;;
53273;SDS011;39163;52.696;6.758;2024-02-21T07:06:25;37.00;;;13.45;;
53273;SDS011;39163;52.696;6.758;2024-02-21T07:08:52;29.42;;;12.98;;
53273;SDS011;39163;52.696;6.758;2024-02-21T07:11:19;37.08;;;13.68;;
53273;SDS011;39163;52.696;6.758;2024-02-21T07:13:46;30.55;;;14.65;;
53273;SDS011;39163;52.696;6.758;2024-02-21T07:16:15;30.60;;;14.57;;
53273;SDS011;39163;52.696;6.758;2024-02-21T07:18:42;35.00;;;15.55;;
53273;SDS011;39163;52.696;6.758;2024-02-21T07:21:09;31.40;;;14.38;;
53273;SDS011;39163;52.696;6.758;2024-02-21T07:23:40;25.90;;;14.45;;
53273;SDS011;39163;52.696;6.758;2024-02-21T07:26:07;33.88;;;16.70;;
53273;SDS011;39163;52.696;6.758;2024-02-21T07:28:34;31.83;;;14.65;;
53273;SDS011;39163;52.696;6.758;2024-02-21T07:31:01;27.63;;;15.32;;
53273;SDS011;39163;52.696;6.758;2024-02-21T07:33:29;26.63;;;14.45;;
53273;SDS011;39163;52.696;6.758;2024-02-21T07:35:57;27.90;;;15.68;;
53273;SDS011;39163;52.696;6.758;2024-02-21T07:38:24;33.70;;;16.02;;
53273;SDS011;39163;52.696;6.758;2024-02-21T07:40:51;24.27;;;14.52;;
53273;SDS011;39163;52.696;6.758;2024-02-21T07:43:18;32.22;;;16.00;;
53273;SDS011;39163;52.696;6.758;2024-02-21T07:45:47;32.33;;;16.30;;
53273;SDS011;39163;52.696;6.758;2024-02-21T07:48:14;33.88;;;16.00;;
53273;SDS011;39163;52.696;6.758;2024-02-21T07:50:42;28.33;;;17.30;;
53273;SDS011;39163;52.696;6.758;2024-02-21T07:53:09;29.10;;;17.50;;
53273;SDS011;39163;52.696;6.758;2024-02-21T07:55:36;30.45;;;15.63;;
53273;SDS011;39163;52.696;6.758;2024-02-21T07:58:03;38.22;;;17.33;;
53273;SDS011;39163;52.696;6.758;2024-02-21T08:00:30;38.53;;;17.25;;
53273;SDS011;39163;52.696;6.758;2024-02-21T08:02:57;26.50;;;15.98;;
53273;SDS011;39163;52.696;6.758;2024-02-21T08:05:24;30.25;;;16.10;;
53273;SDS011;39163;52.696;6.758;2024-02-21T08:07:52;28.88;;;16.63;;
53273;SDS011;39163;52.696;6.758;2024-02-21T08:10:19;27.15;;;16.52;;
53273;SDS011;39163;52.696;6.758;2024-02-21T08:12:46;37.13;;;17.83;;
53273;SDS011;39163;52.696;6.758;2024-02-21T08:15:13;32.60;;;16.98;;
53273;SDS011;39163;52.696;6.758;2024-02-21T08:17:40;23.55;;;15.57;;
53273;SDS011;39163;52.696;6.758;2024-02-21T08:20:08;31.73;;;16.48;;
53273;SDS011;39163;52.696;6.758;2024-02-21T08:22:37;31.40;;;15.52;;
53273;SDS011;39163;52.696;6.758;2024-02-21T08:25:06;24.48;;;15.80;;
53273;SDS011;39163;52.696;6.758;2024-02-21T08:27:33;24.73;;;15.30;;
53273;SDS011;39163;52.696;6.758;2024-02-21T08:30:00;29.52;;;16.92;;
53273;SDS011;39163;52.696;6.758;2024-02-21T08:32:26;35.55;;;15.63;;
53273;SDS011;39163;52.696;6.758;2024-02-21T08:34:55;28.35;;;16.55;;
53273;SDS011;39163;52.696;6.758;2024-02-21T08:37:22;28.17;;;16.13;;
53273;SDS011;39163;52.696;6.758;2024-02-21T08:39:49;36.05;;;16.20;;
53273;SDS011;39163;52.696;6.758;2024-02-21T08:42:17;26.40;;;14.18;;
53273;SDS011;39163;52.696;6.758;2024-02-21T08:44:44;28.85;;;15.77;;
53273;SDS011;39163;52.696;6.758;2024-02-21T08:47:11;32.25;;;15.48;;
53273;SDS011;39163;52.696;6.758;2024-02-21T08:49:38;25.50;;;15.50;;
53273;SDS011;39163;52.696;6.758;2024-02-21T08:52:05;24.70;;;15.57;;
53273;SDS011;39163;52.696;6.758;2024-02-21T08:54:32;36.45;;;20.13;;
53273;SDS011;39163;52.696;6.758;2024-02-21T08:56:59;23.25;;;14.40;;
53273;SDS011;39163;52.696;6.758;2024-02-21T08:59:28;26.88;;;14.80;;
53273;SDS011;39163;52.696;6.758;2024-02-21T09:01:55;28.40;;;14.98;;
53273;SDS011;39163;52.696;6.758;2024-02-21T09:04:21;29.60;;;15.35;;
53273;SDS011;39163;52.696;6.758;2024-02-21T09:06:49;29.95;;;14.95;;
53273;SDS011;39163;52.696;6.758;2024-02-21T09:09:17;26.63;;;15.05;;
53273;SDS011;39163;52.696;6.758;2024-02-21T09:11:45;30.35;;;15.00;;
53273;SDS011;39163;52.696;6.758;2024-02-21T09:14:11;25.38;;;15.38;;
53273;SDS011;39163;52.696;6.758;2024-02-21T09:16:40;24.73;;;14.60;;
53273;SDS011;39163;52.696;6.758;2024-02-21T09:19:08;24.30;;;14.02;;
53273;SDS011;39163;52.696;6.758;2024-02-21T09:21:36;27.83;;;14.57;;
53273;SDS011;39163;52.696;6.758;2024-02-21T09:24:03;24.75;;;12.93;;
53273;SDS011;39163;52.696;6.758;2024-02-21T09:26:31;22.23;;;13.38;;
53273;SDS011;39163;52.696;6.758;2024-02-21T09:28:58;18.58;;;11.50;;
53273;SDS011;39163;52.696;6.758;2024-02-21T09:31:25;24.00;;;12.57;;
53273;SDS011;39163;52.696;6.758;2024-02-21T09:33:53;23.42;;;11.20;;
53273;SDS011;39163;52.696;6.758;2024-02-21T09:36:20;23.20;;;12.95;;
53273;SDS011;39163;52.696;6.758;2024-02-21T09:38:47;24.92;;;13.48;;
53273;SDS011;39163;52.696;6.758;2024-02-21T09:41:15;27.92;;;13.45;;
53273;SDS011;39163;52.696;6.758;2024-02-21T09:43:43;22.08;;;10.65;;
53273;SDS011;39163;52.696;6.758;2024-02-21T09:46:13;19.90;;;10.05;;
53273;SDS011;39163;52.696;6.758;2024-02-21T09:48:48;27.92;;;12.52;;
53273;SDS011;39163;52.696;6.758;2024-02-21T09:51:27;24.80;;;11.50;;
53273;SDS011;39163;52.696;6.758;2024-02-21T09:53:57;22.15;;;10.95;;
53273;SDS011;39163;52.696;6.758;2024-02-21T09:56:24;23.50;;;11.45;;
53273;SDS011;39163;52.696;6.758;2024-02-21T09:58:51;19.83;;;11.23;;
53273;SDS011;39163;52.696;6.758;2024-02-21T10:01:18;27.13;;;10.73;;
53273;SDS011;39163;52.696;6.758;2024-02-21T10:03:45;23.88;;;10.45;;
53273;SDS011;39163;52.696;6.758;2024-02-21T10:06:14;21.15;;;9.57;;
53273;SDS011;39163;52.696;6.758;2024-02-21T10:08:41;24.75;;;10.50;;
53273;SDS011;39163;52.696;6.758;2024-02-21T10:11:08;24.23;;;9.93;;
53273;SDS011;39163;52.696;6.758;2024-02-21T10:13:35;20.48;;;9.13;;
53273;SDS011;39163;52.696;6.758;2024-02-21T10:16:04;23.92;;;11.68;;
53273;SDS011;39163;52.696;6.758;2024-02-21T10:18:32;21.42;;;11.45;;
53273;SDS011;39163;52.696;6.758;2024-02-21T10:21:00;23.13;;;9.40;;
53273;SDS011;39163;52.696;6.758;2024-02-21T10:23:29;20.92;;;10.55;;
53273;SDS011;39163;52.696;6.758;2024-02-21T10:26:07;23.65;;;11.65;;
53273;SDS011;39163;52.696;6.758;2024-02-21T10:28:34;22.83;;;12.00;;
53273;SDS011;39163;52.696;6.758;2024-02-21T10:31:00;29.80;;;14.75;;
53273;SDS011;39163;52.696;6.758;2024-02-21T10:33:27;23.77;;;9.93;;
53273;SDS011;39163;52.696;6.758;2024-02-21T10:36:05;26.52;;;13.15;;
53273;SDS011;39163;52.696;6.758;2024-02-21T10:38:35;14.60;;;8.85;;
53273;SDS011;39163;52.696;6.758;2024-02-21T10:41:03;17.75;;;9.00;;
53273;SDS011;39163;52.696;6.758;2024-02-21T10:43:31;19.33;;;9.45;;
53273;SDS011;39163;52.696;6.758;2024-02-21T10:46:05;14.70;;;9.13;;
53273;SDS011;39163;52.696;6.758;2024-02-21T10:48:33;16.50;;;8.35;;
53273;SDS011;39163;52.696;6.758;2024-02-21T10:51:14;20.92;;;9.65;;
53273;SDS011;39163;52.696;6.758;2024-02-21T10:53:47;14.77;;;8.43;;
53273;SDS011;39163;52.696;6.758;2024-02-21T10:56:26;19.27;;;8.27;;
53273;SDS011;39163;52.696;6.758;2024-02-21T10:58:55;16.88;;;8.18;;
53273;SDS011;39163;52.696;6.758;2024-02-21T11:01:25;21.83;;;9.43;;
53273;SDS011;39163;52.696;6.758;2024-02-21T11:03:55;18.25;;;7.65;;
53273;SDS011;39163;52.696;6.758;2024-02-21T11:06:23;14.50;;;7.57;;
53273;SDS011;39163;52.696;6.758;2024-02-21T11:09:04;18.42;;;7.55;;
53273;SDS011;39163;52.696;6.758;2024-02-21T11:11:33;16.35;;;7.32;;
53273;SDS011;39163;52.696;6.758;2024-02-21T11:14:04;13.25;;;7.78;;
53273;SDS011;39163;52.696;6.758;2024-02-21T11:16:35;16.70;;;8.07;;
53273;SDS011;39163;52.696;6.758;2024-02-21T11:19:04;16.17;;;7.93;;
53273;SDS011;39163;52.696;6.758;2024-02-21T11:21:34;16.70;;;7.50;;
53273;SDS011;39163;52.696;6.758;2024-02-21T11:24:03;15.55;;;8.00;;
53273;SDS011;39163;52.696;6.758;2024-02-21T11:26:31;13.57;;;7.32;;
53273;SDS011;39163;52.696;6.758;2024-02-21T11:28:59;11.77;;;7.00;;
53273;SDS011;39163;52.696;6.758;2024-02-21T11:31:37;12.75;;;6.60;;
53273;SDS011;39163;52.696;6.758;2024-02-21T11:34:04;13.85;;;6.72;;
53273;SDS011;39163;52.696;6.758;2024-02-21T11:36:34;14.95;;;7.10;;
53273;SDS011;39163;52.696;6.758;2024-02-21T11:39:04;8.77;;;5.50;;
53273;SDS011;39163;52.696;6.758;2024-02-21T11:41:31;8.95;;;4.57;;
53273;SDS011;39163;52.696;6.758;2024-02-21T11:43:58;9.57;;;4.70;;
53273;SDS011;39163;52.696;6.758;2024-02-21T11:46:25;10.45;;;5.38;;
53273;SDS011;39163;52.696;6.758;2024-02-21T11:48:52;6.10;;;4.05;;
53273;SDS011;39163;52.696;6.758;2024-02-21T11:51:24;8.38;;;4.68;;
53273;SDS011;39163;52.696;6.758;2024-02-21T11:53:52;8.30;;;4.85;;
53273;SDS011;39163;52.696;6.758;2024-02-21T11:56:20;9.65;;;4.88;;
53273;SDS011;39163;52.696;6.758;2024-02-21T11:58:48;9.75;;;5.55;;
53273;SDS011;39163;52.696;6.758;2024-02-21T12:01:15;9.15;;;5.60;;
53273;SDS011;39163;52.696;6.758;2024-02-21T12:03:42;15.18;;;5.53;;
53273;SDS011;39163;52.696;6.758;2024-02-21T12:06:15;11.25;;;5.50;;
53273;SDS011;39163;52.696;6.758;2024-02-21T12:08:44;9.55;;;4.97;;
53273;SDS011;39163;52.696;6.758;2024-02-21T12:11:19;12.05;;;6.05;;
53273;SDS011;39163;52.696;6.758;2024-02-21T12:13:57;9.23;;;5.43;;
53273;SDS011;39163;52.696;6.758;2024-02-21T12:16:27;7.50;;;4.85;;
53273;SDS011;39163;52.696;6.758;2024-02-21T12:18:55;9.88;;;5.55;;
53273;SDS011;39163;52.696;6.758;2024-02-21T12:21:25;9.82;;;4.68;;
53273;SDS011;39163;52.696;6.758;2024-02-21T12:23:53;10.13;;;4.63;;
53273;SDS011;39163;52.696;6.758;2024-02-21T12:26:22;9.68;;;4.20;;
53273;SDS011;39163;52.696;6.758;2024-02-21T12:28:49;8.38;;;3.88;;
53273;SDS011;39163;52.696;6.758;2024-02-21T12:31:16;7.82;;;3.50;;
53273;SDS011;39163;52.696;6.758;2024-02-21T12:33:43;4.45;;;3.15;;
53273;SDS011;39163;52.696;6.758;2024-02-21T12:36:10;7.53;;;2.38;;
53273;SDS011;39163;52.696;6.758;2024-02-21T12:38:37;5.90;;;2.70;;
53273;SDS011;39163;52.696;6.758;2024-02-21T12:41:04;6.90;;;2.15;;
53273;SDS011;39163;52.696;6.758;2024-02-21T12:43:34;4.85;;;2.22;;
53273;SDS011;39163;52.696;6.758;2024-02-21T12:46:00;5.72;;;2.45;;
53273;SDS011;39163;52.696;6.758;2024-02-21T12:48:27;5.05;;;2.20;;
53273;SDS011;39163;52.696;6.758;2024-02-21T12:50:55;4.30;;;1.73;;
53273;SDS011;39163;52.696;6.758;2024-02-21T12:53:22;4.07;;;2.38;;
53273;SDS011;39163;52.696;6.758;2024-02-21T12:55:49;4.20;;;2.22;;
53273;SDS011;39163;52.696;6.758;2024-02-21T12:58:16;5.95;;;2.60;;
53273;SDS011;39163;52.696;6.758;2024-02-21T13:00:44;6.15;;;3.28;;
53273;SDS011;39163;52.696;6.758;2024-02-21T13:03:11;8.07;;;3.20;;
53273;SDS011;39163;52.696;6.758;2024-02-21T13:05:39;7.00;;;2.92;;
53273;SDS011;39163;52.696;6.758;2024-02-21T13:08:06;6.63;;;3.35;;
53273;SDS011;39163;52.696;6.758;2024-02-21T13:10:33;9.45;;;3.45;;
53273;SDS011;39163;52.696;6.758;2024-02-21T13:13:00;6.53;;;3.78;;
53273;SDS011;39163;52.696;6.758;2024-02-21T13:15:28;9.75;;;4.20;;
53273;SDS011;39163;52.696;6.758;2024-02-21T13:17:56;6.55;;;3.88;;
53273;SDS011;39163;52.696;6.758;2024-02-21T13:20:25;8.82;;;4.32;;
53273;SDS011;39163;52.696;6.758;2024-02-21T13:22:53;9.23;;;3.55;;
53273;SDS011;39163;52.696;6.758;2024-02-21T13:25:20;7.68;;;3.33;;
53273;SDS011;39163;52.696;6.758;2024-02-21T13:27:47;10.43;;;4.93;;
53273;SDS011;39163;52.696;6.758;2024-02-21T13:30:14;10.10;;;3.80;;
53273;SDS011;39163;52.696;6.758;2024-02-21T13:32:42;6.53;;;3.33;;
53273;SDS011;39163;52.696;6.758;2024-02-21T13:35:12;5.95;;;3.40;;
53273;SDS011;39163;52.696;6.758;2024-02-21T13:37:40;7.63;;;4.15;;
53273;SDS011;39163;52.696;6.758;2024-02-21T13:40:07;7.28;;;3.70;;
53273;SDS011;39163;52.696;6.758;2024-02-21T13:42:35;6.55;;;3.92;;
53273;SDS011;39163;52.696;6.758;2024-02-21T13:45:02;6.68;;;4.00;;
53273;SDS011;39163;52.696;6.758;2024-02-21T13:47:31;8.85;;;4.57;;
53273;SDS011;39163;52.696;6.758;2024-02-21T13:49:58;9.93;;;4.25;;
53273;SDS011;39163;52.696;6.758;2024-02-21T13:52:26;12.88;;;4.53;;
53273;SDS011;39163;52.696;6.758;2024-02-21T13:54:53;11.35;;;4.72;;
53273;SDS011;39163;52.696;6.758;2024-02-21T13:57:20;9.18;;;4.30;;
53273;SDS011;39163;52.696;6.758;2024-02-21T13:59:47;12.23;;;4.60;;
53273;SDS011;39163;52.696;6.758;2024-02-21T14:02:13;9.20;;;3.97;;
53273;SDS011;39163;52.696;6.758;2024-02-21T14:04:40;12.95;;;4.25;;
53273;SDS011;39163;52.696;6.758;2024-02-21T14:07:07;8.63;;;3.72;;
53273;SDS011;39163;52.696;6.758;2024-02-21T14:09:36;11.82;;;4.45;;
53273;SDS011;39163;52.696;6.758;2024-02-21T14:12:03;9.13;;;4.05;;
53273;SDS011;39163;52.696;6.758;2024-02-21T14:14:33;13.50;;;4.32;;
53273;SDS011;39163;52.696;6.758;2024-02-21T14:17:01;11.98;;;4.68;;
53273;SDS011;39163;52.696;6.758;2024-02-21T14:19:28;13.18;;;4.68;;
53273;SDS011;39163;52.696;6.758;2024-02-21T14:21:55;9.13;;;3.88;;
53273;SDS011;39163;52.696;6.758;2024-02-21T14:24:22;10.88;;;4.05;;
53273;SDS011;39163;52.696;6.758;2024-02-21T14:26:51;6.70;;;3.50;;
53273;SDS011;39163;52.696;6.758;2024-02-21T14:29:18;8.27;;;3.78;;
53273;SDS011;39163;52.696;6.758;2024-02-21T14:31:45;16.95;;;3.67;;
53273;SDS011;39163;52.696;6.758;2024-02-21T14:34:12;9.73;;;4.03;;